createdAt,value
2018-10-02T00:00:58.948Z,0.00
2018-10-02T00:01:58.861Z,0.00
2018-10-02T00:02:58.791Z,0.00
2018-10-02T00:03:58.702Z,0.00
2018-10-02T00:04:58.629Z,0.00
2018-10-02T00:05:58.546Z,0.00
2018-10-02T00:06:58.471Z,0.00
2018-10-02T00:07:58.387Z,0.00
2018-10-02T00:08:58.312Z,0.00
2018-10-02T00:09:58.224Z,0.00
2018-10-02T00:10:58.151Z,0.00
2018-10-02T00:11:58.069Z,0.00
2018-10-02T00:12:57.991Z,0.00
2018-10-02T00:13:57.910Z,0.00
2018-10-02T00:14:57.833Z,0.00
2018-10-02T00:15:57.746Z,0.00
2018-10-02T00:16:57.673Z,0.00
2018-10-02T00:17:57.587Z,0.00
2018-10-02T00:18:57.512Z,0.00
2018-10-02T00:19:57.430Z,0.00
2018-10-02T00:20:57.358Z,0.00
2018-10-02T00:21:57.267Z,0.00
2018-10-02T00:22:57.194Z,0.00
2018-10-02T00:23:57.105Z,0.00
2018-10-02T00:24:57.039Z,0.00
2018-10-02T00:25:56.949Z,0.00
2018-10-02T00:26:56.875Z,0.00
2018-10-02T00:27:56.793Z,0.00
2018-10-02T00:28:56.717Z,0.00
2018-10-02T00:29:56.634Z,0.00
2018-10-02T00:30:56.557Z,0.00
2018-10-02T00:31:56.591Z,0.00
2018-10-02T00:32:56.397Z,0.00
2018-10-02T00:33:56.311Z,0.00
2018-10-02T00:34:56.236Z,0.00
2018-10-02T00:35:56.151Z,0.00
2018-10-02T00:36:56.077Z,0.00
2018-10-02T00:37:55.990Z,0.00
2018-10-02T00:38:55.917Z,0.00
2018-10-02T00:39:55.831Z,0.00
2018-10-02T00:40:55.758Z,0.00
2018-10-02T00:41:55.673Z,0.00
2018-10-02T00:42:55.599Z,0.00
2018-10-02T00:43:55.513Z,0.00
2018-10-02T00:44:55.481Z,0.00
2018-10-02T00:45:55.353Z,0.00
2018-10-02T00:46:55.280Z,0.00
2018-10-02T00:47:55.192Z,0.00
2018-10-02T00:48:55.120Z,0.00
2018-10-02T00:49:55.035Z,0.00
2018-10-02T00:50:54.959Z,0.00
2018-10-02T00:51:54.874Z,0.00
2018-10-02T00:52:54.807Z,0.00
2018-10-02T00:53:54.717Z,0.00
2018-10-02T00:54:54.642Z,0.00
2018-10-02T00:55:54.554Z,0.00
2018-10-02T00:56:54.481Z,0.00
2018-10-02T00:57:54.395Z,0.00
2018-10-02T00:58:54.324Z,0.00
2018-10-02T00:59:54.236Z,0.00
2018-10-02T01:00:54.169Z,0.00
2018-10-02T01:01:54.076Z,0.00
2018-10-02T01:02:54.003Z,0.00
2018-10-02T01:03:53.915Z,0.00
2018-10-02T01:04:53.845Z,0.00
2018-10-02T01:05:53.756Z,0.00
2018-10-02T01:06:53.682Z,0.00
2018-10-02T01:07:53.596Z,0.00
2018-10-02T01:08:53.525Z,0.00
2018-10-02T01:09:53.436Z,0.00
2018-10-02T01:10:53.365Z,0.00
2018-10-02T01:11:53.273Z,0.00
2018-10-02T01:12:53.203Z,0.00
2018-10-02T01:13:53.119Z,0.00
2018-10-02T01:14:53.046Z,0.00
2018-10-02T01:15:52.956Z,0.00
2018-10-02T01:16:52.887Z,0.00
2018-10-02T01:17:52.797Z,0.00
2018-10-02T01:18:52.723Z,0.00
2018-10-02T01:19:52.636Z,0.00
2018-10-02T01:20:52.564Z,0.00
2018-10-02T01:21:52.476Z,0.00
2018-10-02T01:22:52.405Z,0.00
2018-10-02T01:23:52.313Z,0.00
2018-10-02T01:24:52.245Z,0.00
2018-10-02T01:25:52.164Z,0.00
2018-10-02T01:26:52.083Z,0.00
2018-10-02T01:27:51.995Z,0.00
2018-10-02T01:28:51.925Z,0.00
2018-10-02T01:29:51.837Z,0.00
2018-10-02T01:30:51.766Z,0.00
2018-10-02T01:31:51.678Z,0.00
2018-10-02T01:32:51.607Z,0.00
2018-10-02T01:33:51.517Z,0.00
2018-10-02T01:34:51.458Z,0.00
2018-10-02T01:35:51.358Z,0.00
2018-10-02T01:36:51.290Z,0.00
2018-10-02T01:37:51.196Z,0.00
2018-10-02T01:38:51.125Z,0.00
2018-10-02T01:39:51.035Z,0.00
2018-10-02T01:40:50.965Z,0.00
2018-10-02T01:41:50.883Z,0.00
2018-10-02T01:42:50.804Z,0.00
2018-10-02T01:43:50.717Z,0.00
2018-10-02T01:44:50.647Z,0.00
2018-10-02T01:45:50.557Z,0.00
2018-10-02T01:46:50.486Z,0.00
2018-10-02T01:47:50.395Z,0.00
2018-10-02T01:48:50.324Z,0.00
2018-10-02T01:49:50.242Z,0.00
2018-10-02T01:50:50.169Z,0.00
2018-10-02T01:51:50.080Z,0.00
2018-10-02T01:52:50.005Z,0.00
2018-10-02T01:53:49.915Z,0.00
2018-10-02T01:54:49.846Z,0.00
2018-10-02T01:55:49.757Z,0.00
2018-10-02T01:56:49.685Z,0.00
2018-10-02T01:57:49.594Z,0.00
2018-10-02T01:58:49.521Z,0.00
2018-10-02T01:59:49.437Z,0.00
2018-10-02T02:00:49.364Z,0.00
2018-10-02T02:01:49.279Z,0.00
2018-10-02T02:02:49.204Z,0.00
2018-10-02T02:03:49.117Z,0.00
2018-10-02T02:04:49.048Z,0.00
2018-10-02T02:05:49.006Z,0.00
2018-10-02T02:06:48.884Z,0.00
2018-10-02T02:07:48.806Z,0.00
2018-10-02T02:08:48.724Z,0.00
2018-10-02T02:09:48.639Z,0.00
2018-10-02T02:10:48.561Z,0.00
2018-10-02T02:11:48.477Z,0.00
2018-10-02T02:12:48.406Z,0.00
2018-10-02T02:13:48.318Z,0.00
2018-10-02T02:14:48.247Z,0.00
2018-10-02T02:15:48.157Z,0.00
2018-10-02T02:16:48.084Z,0.00
2018-10-02T02:17:47.998Z,0.00
2018-10-02T02:18:47.927Z,0.00
2018-10-02T02:19:47.837Z,0.00
2018-10-02T02:20:47.765Z,0.00
2018-10-02T02:21:47.676Z,0.00
2018-10-02T02:22:47.605Z,0.00
2018-10-02T02:23:47.518Z,0.00
2018-10-02T02:24:47.444Z,0.00
2018-10-02T02:25:47.359Z,0.00
2018-10-02T02:26:47.291Z,0.00
2018-10-02T02:27:47.203Z,0.00
2018-10-02T02:28:47.122Z,0.00
2018-10-02T02:29:47.046Z,0.00
2018-10-02T02:30:46.965Z,0.00
2018-10-02T02:31:46.877Z,0.00
2018-10-02T02:32:46.804Z,0.00
2018-10-02T02:33:46.720Z,0.00
2018-10-02T02:34:46.643Z,0.00
2018-10-02T02:35:46.556Z,0.00
2018-10-02T02:36:46.490Z,0.00
2018-10-02T02:37:46.394Z,0.00
2018-10-02T02:38:46.324Z,0.00
2018-10-02T02:39:46.237Z,0.00
2018-10-02T02:40:46.163Z,0.00
2018-10-02T02:41:46.074Z,0.00
2018-10-02T02:42:46.011Z,0.00
2018-10-02T02:43:45.917Z,0.00
2018-10-02T02:44:45.842Z,0.00
2018-10-02T02:45:45.760Z,0.00
2018-10-02T02:46:45.682Z,0.00
2018-10-02T02:47:45.589Z,0.00
2018-10-02T02:48:45.520Z,0.00
2018-10-02T02:49:45.433Z,0.00
2018-10-02T02:50:45.364Z,0.00
2018-10-02T02:51:45.273Z,0.00
2018-10-02T02:52:45.250Z,0.00
2018-10-02T02:53:45.114Z,0.00
2018-10-02T02:54:45.044Z,0.00
2018-10-02T02:55:44.951Z,0.00
2018-10-02T02:56:44.879Z,0.00
2018-10-02T02:57:44.801Z,0.00
2018-10-02T02:58:44.721Z,0.00
2018-10-02T02:59:44.685Z,0.00
2018-10-02T03:00:44.558Z,0.00
2018-10-02T03:01:44.468Z,0.00
2018-10-02T03:02:44.399Z,0.00
2018-10-02T03:03:44.311Z,0.00
2018-10-02T03:04:44.237Z,0.00
2018-10-02T03:05:44.151Z,0.00
2018-10-02T03:06:44.080Z,0.00
2018-10-02T03:07:43.989Z,0.00
2018-10-02T03:08:43.918Z,0.00
2018-10-02T03:09:43.831Z,0.00
2018-10-02T03:10:43.758Z,0.00
2018-10-02T03:11:43.671Z,0.00
2018-10-02T03:12:43.599Z,0.00
2018-10-02T03:13:43.512Z,0.00
2018-10-02T03:14:43.430Z,0.00
2018-10-02T03:15:43.343Z,0.00
2018-10-02T03:16:43.278Z,0.00
2018-10-02T03:17:43.187Z,0.00
2018-10-02T03:18:43.113Z,0.00
2018-10-02T03:19:43.037Z,0.00
2018-10-02T03:20:42.955Z,0.00
2018-10-02T03:21:42.890Z,0.00
2018-10-02T03:22:42.794Z,0.00
2018-10-02T03:23:42.701Z,0.00
2018-10-02T03:24:42.630Z,0.00
2018-10-02T03:25:42.544Z,0.00
2018-10-02T03:26:42.470Z,0.00
2018-10-02T03:27:42.381Z,0.00
2018-10-02T03:28:42.317Z,0.00
2018-10-02T03:29:42.222Z,0.00
2018-10-02T03:30:42.150Z,0.00
2018-10-02T03:31:42.062Z,0.00
2018-10-02T03:32:41.989Z,0.00
2018-10-02T03:33:41.898Z,0.00
2018-10-02T03:34:41.843Z,0.00
2018-10-02T03:35:41.744Z,0.00
2018-10-02T03:36:41.673Z,0.00
2018-10-02T03:37:41.604Z,0.00
2018-10-02T03:38:41.505Z,0.00
2018-10-02T03:39:41.433Z,0.00
2018-10-02T03:40:41.344Z,0.00
2018-10-02T03:41:41.260Z,0.00
2018-10-02T03:42:41.187Z,0.00
2018-10-02T03:43:41.097Z,0.00
2018-10-02T03:44:41.091Z,0.00
2018-10-02T03:45:40.937Z,0.00
2018-10-02T03:46:40.861Z,0.00
2018-10-02T03:47:40.778Z,0.00
2018-10-02T03:48:40.797Z,0.00
2018-10-02T03:49:40.616Z,0.00
2018-10-02T03:50:40.569Z,0.00
2018-10-02T03:51:40.452Z,0.00
2018-10-02T03:52:40.427Z,0.00
2018-10-02T03:53:40.291Z,0.00
2018-10-02T03:54:40.235Z,0.00
2018-10-02T03:55:40.133Z,0.00
2018-10-02T03:56:40.146Z,0.00
2018-10-02T03:57:39.972Z,0.00
2018-10-02T03:58:39.951Z,0.00
2018-10-02T03:59:39.812Z,0.00
2018-10-02T04:00:39.761Z,0.00
2018-10-02T04:01:39.648Z,0.00
2018-10-02T04:02:39.673Z,0.00
2018-10-02T04:03:39.548Z,0.00
2018-10-02T04:04:39.480Z,0.00
2018-10-02T04:05:39.326Z,0.00
2018-10-02T04:06:39.251Z,0.00
2018-10-02T04:07:39.166Z,0.00
2018-10-02T04:08:39.200Z,0.00
2018-10-02T04:09:39.000Z,0.00
2018-10-02T04:10:39.011Z,0.00
2018-10-02T04:11:38.846Z,0.00
2018-10-02T04:12:38.817Z,0.00
2018-10-02T04:13:38.684Z,0.00
2018-10-02T04:14:38.627Z,0.00
2018-10-02T04:15:38.529Z,0.00
2018-10-02T04:16:38.537Z,0.00
2018-10-02T04:17:38.361Z,0.00
2018-10-02T04:18:38.354Z,0.00
2018-10-02T04:19:38.201Z,0.00
2018-10-02T04:20:38.185Z,0.00
2018-10-02T04:21:38.040Z,0.00
2018-10-02T04:22:38.065Z,0.00
2018-10-02T04:23:37.889Z,0.00
2018-10-02T04:24:37.877Z,0.00
2018-10-02T04:25:37.718Z,0.00
2018-10-02T04:26:37.683Z,0.00
2018-10-02T04:27:37.555Z,0.00
2018-10-02T04:28:37.490Z,0.00
2018-10-02T04:29:37.393Z,0.00
2018-10-02T04:30:37.404Z,0.00
2018-10-02T04:31:37.233Z,0.00
2018-10-02T04:32:37.158Z,0.00
2018-10-02T04:33:37.108Z,0.00
2018-10-02T04:34:36.994Z,0.00
2018-10-02T04:35:36.910Z,0.00
2018-10-02T04:36:36.928Z,0.00
2018-10-02T04:37:36.749Z,0.00
2018-10-02T04:38:36.740Z,0.00
2018-10-02T04:39:36.639Z,0.00
2018-10-02T04:40:36.516Z,0.00
2018-10-02T04:41:36.428Z,0.00
2018-10-02T04:42:36.459Z,0.00
2018-10-02T04:43:36.266Z,0.00
2018-10-02T04:44:36.197Z,0.00
2018-10-02T04:45:36.104Z,0.00
2018-10-02T04:46:36.072Z,0.00
2018-10-02T04:47:35.943Z,0.00
2018-10-02T04:48:35.885Z,0.00
2018-10-02T04:49:35.784Z,0.00
2018-10-02T04:50:35.792Z,0.00
2018-10-02T04:51:35.622Z,0.00
2018-10-02T04:52:35.603Z,0.00
2018-10-02T04:53:35.464Z,0.00
2018-10-02T04:54:35.416Z,0.00
2018-10-02T04:55:35.328Z,0.00
2018-10-02T04:56:35.323Z,0.00
2018-10-02T04:57:35.142Z,0.00
2018-10-02T04:58:35.138Z,4.00
2018-10-02T04:59:34.971Z,0.00
2018-10-02T05:00:34.939Z,0.00
2018-10-02T05:01:34.815Z,4.00
2018-10-02T05:02:34.857Z,0.00
2018-10-02T05:03:34.654Z,0.00
2018-10-02T05:04:34.579Z,4.00
2018-10-02T05:05:34.492Z,4.00
2018-10-02T05:06:34.463Z,0.00
2018-10-02T05:07:34.328Z,4.00
2018-10-02T05:08:34.313Z,8.00
2018-10-02T05:09:34.172Z,8.00
2018-10-02T05:10:34.187Z,4.00
2018-10-02T05:11:34.014Z,12.00
2018-10-02T05:12:33.998Z,8.00
2018-10-02T05:13:33.845Z,12.00
2018-10-02T05:14:33.810Z,12.00
2018-10-02T05:15:33.683Z,12.00
2018-10-02T05:16:33.716Z,12.00
2018-10-02T05:17:33.526Z,16.00
2018-10-02T05:18:33.463Z,16.00
2018-10-02T05:19:33.358Z,16.00
2018-10-02T05:20:33.327Z,20.00
2018-10-02T05:21:33.201Z,24.00
2018-10-02T05:22:33.127Z,24.00
2018-10-02T05:23:33.039Z,24.00
2018-10-02T05:24:32.966Z,28.00
2018-10-02T05:25:32.879Z,28.00
2018-10-02T05:26:32.804Z,32.00
2018-10-02T05:27:32.746Z,32.00
2018-10-02T05:28:32.668Z,36.00
2018-10-02T05:29:32.556Z,40.00
2018-10-02T05:30:32.580Z,44.00
2018-10-02T05:31:32.393Z,48.00
2018-10-02T05:32:32.389Z,48.00
2018-10-02T05:33:32.250Z,56.00
2018-10-02T05:34:32.193Z,60.00
2018-10-02T05:35:32.199Z,64.00
2018-10-02T05:36:32.108Z,68.00
2018-10-02T05:37:31.911Z,72.00
2018-10-02T05:38:31.911Z,76.00
2018-10-02T05:39:31.751Z,80.00
2018-10-02T05:40:31.729Z,84.00
2018-10-02T05:41:31.589Z,92.00
2018-10-02T05:42:31.534Z,100.00
2018-10-02T05:43:31.427Z,104.00
2018-10-02T05:44:31.443Z,108.00
2018-10-02T05:45:31.263Z,116.00
2018-10-02T05:46:31.248Z,124.00
2018-10-02T05:47:31.102Z,128.00
2018-10-02T05:48:31.058Z,136.00
2018-10-02T05:49:30.938Z,144.00
2018-10-02T05:50:30.982Z,148.00
2018-10-02T05:51:30.784Z,152.00
2018-10-02T05:52:30.779Z,152.00
2018-10-02T05:53:30.617Z,156.00
2018-10-02T05:54:30.590Z,160.00
2018-10-02T05:55:30.455Z,168.00
2018-10-02T05:56:30.399Z,172.00
2018-10-02T05:57:30.305Z,172.00
2018-10-02T05:58:30.429Z,168.00
2018-10-02T05:59:30.131Z,168.00
2018-10-02T06:00:30.116Z,168.00
2018-10-02T06:01:29.976Z,164.00
2018-10-02T06:02:29.924Z,168.00
2018-10-02T06:03:29.809Z,164.00
2018-10-02T06:04:29.836Z,164.00
2018-10-02T06:05:29.648Z,164.00
2018-10-02T06:06:29.644Z,160.00
2018-10-02T06:07:29.491Z,160.00
2018-10-02T06:08:29.453Z,160.00
2018-10-02T06:09:29.331Z,164.00
2018-10-02T06:10:29.261Z,160.00
2018-10-02T06:11:29.164Z,160.00
2018-10-02T06:12:29.170Z,164.00
2018-10-02T06:13:29.003Z,168.00
2018-10-02T06:14:28.980Z,176.00
2018-10-02T06:15:28.841Z,184.00
2018-10-02T06:16:28.787Z,188.00
2018-10-02T06:17:28.682Z,192.00
2018-10-02T06:18:28.707Z,200.00
2018-10-02T06:19:28.519Z,208.00
2018-10-02T06:20:28.507Z,220.00
2018-10-02T06:21:28.359Z,228.00
2018-10-02T06:22:28.316Z,232.00
2018-10-02T06:23:28.196Z,244.00
2018-10-02T06:24:28.225Z,252.00
2018-10-02T06:25:28.036Z,264.00
2018-10-02T06:26:28.037Z,268.00
2018-10-02T06:27:27.878Z,268.00
2018-10-02T06:28:27.844Z,272.00
2018-10-02T06:29:27.719Z,284.00
2018-10-02T06:30:27.683Z,288.00
2018-10-02T06:31:27.552Z,320.00
2018-10-02T06:32:27.565Z,376.00
2018-10-02T06:33:27.393Z,400.00
2018-10-02T06:34:27.375Z,428.00
2018-10-02T06:35:27.230Z,468.00
2018-10-02T06:36:27.180Z,504.00
2018-10-02T06:37:27.068Z,504.00
2018-10-02T06:38:27.169Z,412.00
2018-10-02T06:39:26.906Z,416.00
2018-10-02T06:40:26.914Z,480.00
2018-10-02T06:41:26.747Z,444.00
2018-10-02T06:42:26.708Z,404.00
2018-10-02T06:43:26.637Z,396.00
2018-10-02T06:44:26.677Z,396.00
2018-10-02T06:45:26.427Z,400.00
2018-10-02T06:46:26.443Z,392.00
2018-10-02T06:47:26.262Z,384.00
2018-10-02T06:48:26.236Z,380.00
2018-10-02T06:49:26.107Z,376.00
2018-10-02T06:50:26.080Z,372.00
2018-10-02T06:51:26.063Z,376.00
2018-10-02T06:52:26.137Z,380.00
2018-10-02T06:53:25.780Z,396.00
2018-10-02T06:54:25.771Z,416.00
2018-10-02T06:55:25.623Z,424.00
2018-10-02T06:56:25.629Z,424.00
2018-10-02T06:57:25.460Z,416.00
2018-10-02T06:58:25.485Z,404.00
2018-10-02T06:59:25.298Z,396.00
2018-10-02T07:00:25.311Z,412.00
2018-10-02T07:01:25.137Z,444.00
2018-10-02T07:02:25.113Z,448.00
2018-10-02T07:03:24.976Z,484.00
2018-10-02T07:04:25.010Z,520.00
2018-10-02T07:05:24.816Z,556.00
2018-10-02T07:06:24.820Z,592.00
2018-10-02T07:07:24.660Z,612.00
2018-10-02T07:08:24.644Z,612.00
2018-10-02T07:09:24.503Z,612.00
2018-10-02T07:10:24.437Z,796.00
2018-10-02T07:11:24.336Z,752.00
2018-10-02T07:12:24.387Z,764.00
2018-10-02T07:13:24.180Z,896.00
2018-10-02T07:14:24.202Z,712.00
2018-10-02T07:15:24.018Z,700.00
2018-10-02T07:16:23.968Z,712.00
2018-10-02T07:17:23.864Z,732.00
2018-10-02T07:18:23.877Z,1192.00
2018-10-02T07:19:23.696Z,1012.00
2018-10-02T07:20:23.714Z,928.00
2018-10-02T07:21:23.536Z,984.00
2018-10-02T07:22:23.493Z,1020.00
2018-10-02T07:23:23.374Z,1176.00
2018-10-02T07:24:23.403Z,1204.00
2018-10-02T07:25:23.218Z,1404.00
2018-10-02T07:26:23.230Z,1112.00
2018-10-02T07:27:23.186Z,1660.00
2018-10-02T07:28:23.053Z,1400.00
2018-10-02T07:29:22.894Z,1960.00
2018-10-02T07:30:22.843Z,2112.00
2018-10-02T07:31:22.752Z,1736.00
2018-10-02T07:32:22.747Z,1408.00
2018-10-02T07:33:22.587Z,1160.00
2018-10-02T07:34:22.547Z,1152.00
2018-10-02T07:35:22.415Z,1160.00
2018-10-02T07:36:22.363Z,1228.00
2018-10-02T07:37:22.257Z,1336.00
2018-10-02T07:38:22.270Z,1292.00
2018-10-02T07:39:22.097Z,1344.00
2018-10-02T07:40:22.080Z,1436.00
2018-10-02T07:41:21.955Z,1188.00
2018-10-02T07:42:21.890Z,964.00
2018-10-02T07:43:21.782Z,880.00
2018-10-02T07:44:21.804Z,804.00
2018-10-02T07:45:21.621Z,756.00
2018-10-02T07:46:21.602Z,696.00
2018-10-02T07:47:21.464Z,660.00
2018-10-02T07:48:21.440Z,644.00
2018-10-02T07:49:21.307Z,644.00
2018-10-02T07:50:21.333Z,644.00
2018-10-02T07:51:21.159Z,644.00
2018-10-02T07:52:21.131Z,656.00
2018-10-02T07:53:20.986Z,640.00
2018-10-02T07:54:20.940Z,632.00
2018-10-02T07:55:20.829Z,644.00
2018-10-02T07:56:20.883Z,664.00
2018-10-02T07:57:20.668Z,688.00
2018-10-02T07:58:20.660Z,708.00
2018-10-02T07:59:20.509Z,744.00
2018-10-02T08:00:20.469Z,792.00
2018-10-02T08:01:20.354Z,944.00
2018-10-02T08:02:20.380Z,1288.00
2018-10-02T08:03:20.238Z,988.00
2018-10-02T08:04:20.186Z,1700.00
2018-10-02T08:05:20.145Z,2080.00
2018-10-02T08:06:20.004Z,2640.00
2018-10-02T08:07:19.873Z,1292.00
2018-10-02T08:08:19.907Z,1236.00
2018-10-02T08:09:19.715Z,1144.00
2018-10-02T08:10:19.716Z,836.00
2018-10-02T08:11:19.556Z,784.00
2018-10-02T08:12:19.635Z,784.00
2018-10-02T08:13:19.398Z,728.00
2018-10-02T08:14:19.435Z,748.00
2018-10-02T08:15:19.239Z,808.00
2018-10-02T08:16:19.244Z,792.00
2018-10-02T08:17:19.084Z,764.00
2018-10-02T08:18:19.058Z,780.00
2018-10-02T08:19:18.935Z,804.00
2018-10-02T08:20:18.861Z,804.00
2018-10-02T08:21:18.765Z,852.00
2018-10-02T08:22:18.772Z,880.00
2018-10-02T08:23:18.604Z,916.00
2018-10-02T08:24:18.583Z,920.00
2018-10-02T08:25:18.446Z,944.00
2018-10-02T08:26:18.389Z,1112.00
2018-10-02T08:27:18.406Z,872.00
2018-10-02T08:28:18.303Z,836.00
2018-10-02T08:29:18.169Z,804.00
2018-10-02T08:30:18.173Z,804.00
2018-10-02T08:31:17.972Z,792.00
2018-10-02T08:32:17.917Z,796.00
2018-10-02T08:33:17.815Z,788.00
2018-10-02T08:34:17.829Z,796.00
2018-10-02T08:35:17.669Z,812.00
2018-10-02T08:36:17.705Z,876.00
2018-10-02T08:37:17.501Z,936.00
2018-10-02T08:38:17.444Z,1068.00
2018-10-02T08:39:17.342Z,1300.00
2018-10-02T08:40:17.270Z,1296.00
2018-10-02T08:41:17.184Z,1512.00
2018-10-02T08:42:17.166Z,1328.00
2018-10-02T08:43:17.060Z,1132.00
2018-10-02T08:44:16.972Z,1264.00
2018-10-02T08:45:16.873Z,2752.00
2018-10-02T08:46:16.885Z,2432.00
2018-10-02T08:47:16.709Z,1960.00
2018-10-02T08:48:16.693Z,1564.00
2018-10-02T08:49:16.548Z,1436.00
2018-10-02T08:50:16.500Z,1540.00
2018-10-02T08:51:16.396Z,1368.00
2018-10-02T08:52:16.803Z,1696.00
2018-10-02T08:53:16.236Z,1304.00
2018-10-02T08:54:16.223Z,948.00
2018-10-02T08:55:16.084Z,1088.00
2018-10-02T08:56:16.029Z,1504.00
2018-10-02T08:57:15.921Z,2528.00
2018-10-02T08:58:15.940Z,2756.00
2018-10-02T08:59:15.764Z,1876.00
2018-10-02T09:00:20.358Z,2312.00
2018-10-02T09:01:15.613Z,1760.00
2018-10-02T09:02:16.582Z,2776.00
2018-10-02T09:03:15.501Z,3044.00
2018-10-02T09:04:15.471Z,1824.00
2018-10-02T09:05:15.293Z,1688.00
2018-10-02T09:06:15.278Z,3348.00
2018-10-02T09:07:15.137Z,3376.00
2018-10-02T09:08:15.087Z,3204.00
2018-10-02T09:09:14.988Z,3376.00
2018-10-02T09:10:14.996Z,2788.00
2018-10-02T09:11:14.822Z,2076.00
2018-10-02T09:12:14.808Z,1844.00
2018-10-02T09:13:14.666Z,2280.00
2018-10-02T09:14:14.610Z,1612.00
2018-10-02T09:15:14.509Z,1780.00
2018-10-02T09:16:14.594Z,1488.00
2018-10-02T09:17:14.364Z,1288.00
2018-10-02T09:18:14.330Z,1336.00
2018-10-02T09:19:14.196Z,1392.00
2018-10-02T09:20:14.143Z,1664.00
2018-10-02T09:21:14.037Z,1516.00
2018-10-02T09:22:14.052Z,1600.00
2018-10-02T09:23:13.883Z,1564.00
2018-10-02T09:24:13.862Z,1888.00
2018-10-02T09:25:13.726Z,1256.00
2018-10-02T09:26:13.666Z,1624.00
2018-10-02T09:27:13.573Z,1564.00
2018-10-02T09:28:13.577Z,1568.00
2018-10-02T09:29:13.415Z,1348.00
2018-10-02T09:30:13.397Z,1296.00
2018-10-02T09:31:13.346Z,1392.00
2018-10-02T09:32:13.194Z,1332.00
2018-10-02T09:33:13.103Z,1464.00
2018-10-02T09:34:13.104Z,1452.00
2018-10-02T09:35:12.945Z,1564.00
2018-10-02T09:36:12.913Z,1516.00
2018-10-02T09:37:12.887Z,1496.00
2018-10-02T09:38:12.716Z,1596.00
2018-10-02T09:39:12.632Z,1504.00
2018-10-02T09:40:12.632Z,1512.00
2018-10-02T09:41:12.476Z,1628.00
2018-10-02T09:42:12.441Z,1704.00
2018-10-02T09:43:12.320Z,1708.00
2018-10-02T09:44:12.357Z,1632.00
2018-10-02T09:45:12.169Z,1528.00
2018-10-02T09:46:12.162Z,1484.00
2018-10-02T09:47:12.006Z,1392.00
2018-10-02T09:48:11.972Z,1308.00
2018-10-02T09:49:11.848Z,1232.00
2018-10-02T09:50:11.881Z,1112.00
2018-10-02T09:51:11.703Z,1028.00
2018-10-02T09:52:11.690Z,968.00
2018-10-02T09:53:11.537Z,900.00
2018-10-02T09:54:12.520Z,872.00
2018-10-02T09:55:11.383Z,852.00
2018-10-02T09:56:11.406Z,840.00
2018-10-02T09:57:11.226Z,860.00
2018-10-02T09:58:11.215Z,904.00
2018-10-02T09:59:11.070Z,932.00
2018-10-02T10:00:11.026Z,808.00
2018-10-02T10:01:10.915Z,848.00
2018-10-02T10:02:10.937Z,904.00
2018-10-02T10:03:10.838Z,892.00
2018-10-02T10:04:10.797Z,868.00
2018-10-02T10:05:10.602Z,808.00
2018-10-02T10:06:10.576Z,760.00
2018-10-02T10:07:10.445Z,728.00
2018-10-02T10:08:10.464Z,704.00
2018-10-02T10:09:10.293Z,688.00
2018-10-02T10:10:10.269Z,676.00
2018-10-02T10:11:10.132Z,680.00
2018-10-02T10:12:10.081Z,680.00
2018-10-02T10:13:09.975Z,680.00
2018-10-02T10:14:09.992Z,688.00
2018-10-02T10:15:09.821Z,692.00
2018-10-02T10:16:09.802Z,688.00
2018-10-02T10:17:09.798Z,656.00
2018-10-02T10:18:09.608Z,656.00
2018-10-02T10:19:09.510Z,652.00
2018-10-02T10:20:09.526Z,648.00
2018-10-02T10:21:09.350Z,656.00
2018-10-02T10:22:09.329Z,656.00
2018-10-02T10:23:09.192Z,668.00
2018-10-02T10:24:09.139Z,684.00
2018-10-02T10:25:09.035Z,688.00
2018-10-02T10:26:09.047Z,704.00
2018-10-02T10:27:08.879Z,724.00
2018-10-02T10:28:08.855Z,740.00
2018-10-02T10:29:08.763Z,716.00
2018-10-02T10:30:08.661Z,684.00
2018-10-02T10:31:08.568Z,672.00
2018-10-02T10:32:08.575Z,664.00
2018-10-02T10:33:08.415Z,664.00
2018-10-02T10:34:08.382Z,680.00
2018-10-02T10:35:08.258Z,684.00
2018-10-02T10:36:08.180Z,656.00
2018-10-02T10:37:08.200Z,620.00
2018-10-02T10:38:08.023Z,624.00
2018-10-02T10:39:08.008Z,620.00
2018-10-02T10:40:07.868Z,596.00
2018-10-02T10:41:07.972Z,560.00
2018-10-02T10:42:07.707Z,516.00
2018-10-02T10:43:07.727Z,484.00
2018-10-02T10:44:07.558Z,436.00
2018-10-02T10:45:07.535Z,408.00
2018-10-02T10:46:07.402Z,388.00
2018-10-02T10:47:07.346Z,364.00
2018-10-02T10:48:07.244Z,340.00
2018-10-02T10:49:07.255Z,316.00
2018-10-02T10:50:07.085Z,304.00
2018-10-02T10:51:07.066Z,308.00
2018-10-02T10:52:06.929Z,324.00
2018-10-02T10:53:06.936Z,324.00
2018-10-02T10:54:06.770Z,316.00
2018-10-02T10:55:06.785Z,312.00
2018-10-02T10:56:06.615Z,308.00
2018-10-02T10:57:06.589Z,300.00
2018-10-02T10:58:06.458Z,288.00
2018-10-02T10:59:06.488Z,284.00
2018-10-02T11:00:06.304Z,292.00
2018-10-02T11:01:06.312Z,308.00
2018-10-02T11:02:06.151Z,340.00
2018-10-02T11:03:06.207Z,352.00
2018-10-02T11:04:05.987Z,356.00
2018-10-02T11:05:05.947Z,352.00
2018-10-02T11:06:05.838Z,368.00
2018-10-02T11:07:05.838Z,368.00
2018-10-02T11:08:05.679Z,336.00
2018-10-02T11:09:05.646Z,308.00
2018-10-02T11:10:05.519Z,280.00
2018-10-02T11:11:05.557Z,264.00
2018-10-02T11:12:05.368Z,248.00
2018-10-02T11:13:05.366Z,240.00
2018-10-02T11:14:05.235Z,232.00
2018-10-02T11:15:05.211Z,236.00
2018-10-02T11:16:05.048Z,248.00
2018-10-02T11:17:05.086Z,272.00
2018-10-02T11:18:04.889Z,304.00
2018-10-02T11:19:04.891Z,324.00
2018-10-02T11:20:04.743Z,332.00
2018-10-02T11:21:04.705Z,340.00
2018-10-02T11:22:04.578Z,372.00
2018-10-02T11:23:04.615Z,404.00
2018-10-02T11:24:04.494Z,428.00
2018-10-02T11:25:04.428Z,432.00
2018-10-02T11:26:04.265Z,440.00
2018-10-02T11:27:04.230Z,436.00
2018-10-02T11:28:04.110Z,436.00
2018-10-02T11:29:04.139Z,428.00
2018-10-02T11:30:03.951Z,424.00
2018-10-02T11:31:03.923Z,428.00
2018-10-02T11:32:03.796Z,436.00
2018-10-02T11:33:03.776Z,448.00
2018-10-02T11:34:03.634Z,460.00
2018-10-02T11:35:03.669Z,472.00
2018-10-02T11:36:03.486Z,480.00
2018-10-02T11:37:03.429Z,492.00
2018-10-02T11:38:03.322Z,500.00
2018-10-02T11:39:03.285Z,504.00
2018-10-02T11:40:03.167Z,508.00
2018-10-02T11:41:03.196Z,504.00
2018-10-02T11:42:03.011Z,508.00
2018-10-02T11:43:03.052Z,504.00
2018-10-02T11:44:02.859Z,508.00
2018-10-02T11:45:02.868Z,516.00
2018-10-02T11:46:02.692Z,528.00
2018-10-02T11:47:02.726Z,540.00
2018-10-02T11:48:02.538Z,556.00
2018-10-02T11:49:02.534Z,572.00
2018-10-02T11:50:02.506Z,576.00
2018-10-02T11:51:02.452Z,576.00
2018-10-02T11:52:02.229Z,576.00
2018-10-02T11:53:02.251Z,584.00
2018-10-02T11:54:02.069Z,596.00
2018-10-02T11:55:02.063Z,616.00
2018-10-02T11:56:01.908Z,632.00
2018-10-02T11:57:01.872Z,640.00
2018-10-02T11:58:01.747Z,652.00
2018-10-02T11:59:01.785Z,656.00
2018-10-02T12:00:01.601Z,660.00
2018-10-02T12:01:01.673Z,660.00
2018-10-02T12:02:01.438Z,656.00
2018-10-02T12:03:01.398Z,656.00
2018-10-02T12:04:01.287Z,660.00
2018-10-02T12:05:01.309Z,664.00
2018-10-02T12:06:01.122Z,656.00
2018-10-02T12:07:01.118Z,644.00
2018-10-02T12:08:00.965Z,628.00
2018-10-02T12:09:01.024Z,616.00
2018-10-02T12:10:00.805Z,596.00
2018-10-02T12:11:00.840Z,584.00
2018-10-02T12:12:00.650Z,596.00
2018-10-02T12:13:00.739Z,616.00
2018-10-02T12:14:00.929Z,636.00
2018-10-02T12:15:00.536Z,652.00
2018-10-02T12:16:00.337Z,656.00
2018-10-02T12:17:00.365Z,656.00
2018-10-02T12:18:00.177Z,656.00
2018-10-02T12:19:00.174Z,664.00
2018-10-02T12:20:00.249Z,680.00
2018-10-02T12:20:59.984Z,676.00
2018-10-02T12:21:59.861Z,660.00
2018-10-02T12:22:59.893Z,672.00
2018-10-02T12:23:59.707Z,672.00
2018-10-02T12:25:00.099Z,672.00
2018-10-02T12:25:59.551Z,664.00
2018-10-02T12:26:59.509Z,652.00
2018-10-02T12:27:59.390Z,652.00
2018-10-02T12:28:59.421Z,632.00
2018-10-02T12:29:59.239Z,652.00
2018-10-02T12:30:59.231Z,708.00
2018-10-02T12:31:59.079Z,728.00
2018-10-02T12:32:59.040Z,708.00
2018-10-02T12:33:58.924Z,652.00
2018-10-02T12:34:58.948Z,584.00
2018-10-02T12:35:58.768Z,536.00
2018-10-02T12:36:58.757Z,516.00
2018-10-02T12:37:58.609Z,520.00
2018-10-02T12:38:58.589Z,536.00
2018-10-02T12:39:58.545Z,576.00
2018-10-02T12:40:58.381Z,596.00
2018-10-02T12:41:58.852Z,580.00
2018-10-02T12:42:58.285Z,548.00
2018-10-02T12:43:58.137Z,528.00
2018-10-02T12:44:58.096Z,520.00